| Date | Time | Temp. (oF) | Dew Point (oF) | Rel. Hum. (%) | Press. (in.) | Wind Dir. | Wind Speed (mph) | Hourly Rainfall (in.) |
|
|---|---|---|---|---|---|---|---|---|---|
| 1 | 04/17 | 00:00 | 47 | 34 | 61 | 30.34 | SW | 0 | 0.00 |
| 2 | 04/16 | 23:00 | 50 | 32 | 50 | 30.33 | S | 0 | 0.00 |
| 3 | 04/16 | 22:00 | 53 | 32 | 46 | 30.32 | SW | 0 | 0.00 |
| 4 | 04/16 | 21:00 | 57 | 31 | 38 | 30.31 | SSW | 0 | 0.00 |
| 5 | 04/16 | 20:00 | 61 | 31 | 33 | 30.29 | SSE | 0 | 0.00 |
| 6 | 04/16 | 19:00 | 64 | 32 | 31 | 30.28 | S | 0 | 0.00 |
| 7 | 04/16 | 18:00 | 66 | 33 | 30 | 30.27 | S | 0 | 0.00 |
| 8 | 04/16 | 17:00 | 66 | 33 | 30 | 30.28 | SE | 5 | 0.00 |
| 9 | 04/16 | 16:00 | 65 | 36 | 35 | 30.30 | SE | 0 | 0.00 |
| 10 | 04/16 | 15:00 | 64 | 37 | 37 | 30.32 | ESE | 0 | 0.00 |
| 11 | 04/16 | 14:00 | 63 | 33 | 34 | 30.34 | N | 2 | 0.00 |
| 12 | 04/16 | 13:00 | 61 | 35 | 38 | 30.36 | ENE | 0 | 0.00 |
| 13 | 04/16 | 12:00 | 60 | 38 | 45 | 30.37 | SE | 0 | 0.00 |
| 14 | 04/16 | 11:00 | 58 | 31 | 36 | 30.38 | SE | 7 | 0.00 |
| 15 | 04/16 | 10:00 | 54 | 33 | 45 | 30.39 | E | 0 | 0.00 |
| 16 | 04/16 | 09:00 | 49 | 38 | 66 | 30.38 | E | 0 | 0.00 |
| 17 | 04/16 | 08:00 | 40 | 37 | 89 | 30.37 | S | 0 | 0.00 |
| 18 | 04/16 | 07:00 | 36 | 32 | 87 | 30.35 | S | 0 | 0.00 |
| 19 | 04/16 | 06:00 | 36 | 32 | 86 | 30.33 | NNE | 0 | 0.00 |
| 20 | 04/16 | 05:00 | 37 | 32 | 83 | 30.32 | W | 0 | 0.00 |
| 21 | 04/16 | 04:00 | 39 | 33 | 80 | 30.31 | NNE | 0 | 0.00 |
| 22 | 04/16 | 03:00 | 40 | 33 | 78 | 30.32 | S | 0 | 0.00 |
| 23 | 04/16 | 02:00 | 41 | 33 | 75 | 30.33 | NNE | 0 | 0.00 |
| 24 | 04/16 | 01:00 | 43 | 34 | 71 | 30.33 | ESE | 0 | 0.00 |